Data for 01/22/2005

Time Sea-Level Adjusted Pressure Absolute Pressure Temperature Relative Humidity Dew Point   
(mb) (inHg) (mb) (inHg) (C) (F) (%) (C) (F)
00:05 1024 30.24 853 25.19 -0.8 30.6 87 -2.7 27.2
00:10 1024 30.24 853 25.19 -0.8 30.6 87 -2.7 27.2
00:15 1024 30.24 853 25.19 -0.7 30.8 87 -2.6 27.3
00:20 1024 30.24 853 25.19 -0.7 30.7 87 -2.7 27.2
00:25 1024 30.24 853 25.19 -0.8 30.6 87 -2.7 27.2
00:30 1024 30.24 853 25.19 -0.8 30.6 87 -2.7 27.1
00:35 1024 30.24 853 25.19 -0.7 30.7 87 -2.7 27.2
00:40 1024 30.24 853 25.19 -0.7 30.8 86 -2.7 27.1
00:45 1024 30.24 853 25.19 -0.6 30.8 86 -2.7 27.2
00:50 1024 30.24 853 25.19 -0.6 30.9 86 -2.6 27.2
00:55 1024 30.24 853 25.19 -0.6 31 86 -2.6 27.4
01:00 1024 30.24 853 25.19 -0.6 30.9 86 -2.6 27.2
01:05 1024 30.24 853 25.19 -0.6 30.9 86 -2.7 27.1
01:10 1024 30.24 853 25.19 -0.6 30.9 86 -2.7 27.2
01:15 1024 30.24 853 25.19 -0.6 30.8 86 -2.7 27.1
01:20 1024 30.24 853 25.19 -0.6 30.9 86 -2.7 27.2
01:25 1024 30.24 853 25.19 -0.7 30.8 86 -2.7 27.1
01:30 1024 30.24 853 25.19 -0.7 30.7 86 -2.7 27.1
01:35 1024 30.24 853 25.19 -0.7 30.7 86 -2.8 27
01:40 1024 30.24 853 25.19 -0.7 30.7 86 -2.7 27.1
01:45 1024 30.24 853 25.19 -0.8 30.5 87 -2.7 27.1
01:50 1024 30.24 853 25.19 -0.9 30.4 87 -2.7 27.1
01:55 1024 30.24 853 25.19 -1 30.3 87 -2.8 27
02:00 1024 30.24 853 25.19 -1 30.3 88 -2.7 27.1
02:05 1024 30.24 853 25.19 -0.9 30.3 88 -2.8 27
02:10 1024 30.24 853 25.19 -0.9 30.4 87 -2.8 27
02:15 1024 30.24 853 25.19 -1 30.2 87 -2.8 26.9
02:20 1024 30.24 853 25.19 -1 30.2 88 -2.8 27
02:25 1024 30.24 853 25.19 -1.1 30.1 88 -2.8 27
02:30 1024 30.24 853 25.19 -1.2 29.9 88 -2.9 26.8
02:35 1024 30.24 853 25.19 -1.2 29.9 88 -2.9 26.7
02:40 1024 30.24 853 25.19 -1.2 29.8 88 -2.9 26.7
02:45 1024 30.24 853 25.19 -1.2 29.8 88 -3 26.7
02:50 1024 30.24 853 25.19 -1.2 29.8 88 -2.9 26.7
02:55 1024 30.24 853 25.19 -1.2 29.8 88 -3 26.5
03:00 1024 30.24 853 25.19 -1.2 29.8 87 -3 26.5
03:05 1024 30.24 853 25.19 -1.2 29.8 87 -3 26.5
03:10 1024 30.24 853 25.19 -1.2 29.9 87 -3.1 26.4
03:15 1024 30.24 853 25.19 -1.2 29.8 87 -3.1 26.5
03:20 1024 30.24 853 25.19 -1.1 30 86 -3.1 26.3
03:25 1024 30.24 853 25.19 -1.2 29.9 87 -3.1 26.3
03:30 1024 30.24 853 25.19 -1.2 29.8 87 -3.2 26.3
03:35 1024 30.24 853 25.19 -1.3 29.7 87 -3.2 26.2
03:40 1023 30.21 853 25.19 -1.3 29.6 87 -3.2 26.2
03:45 1023 30.21 853 25.19 -1.3 29.6 87 -3.2 26.2
03:50 1023 30.21 853 25.19 -1.4 29.5 87 -3.2 26.2
03:55 1023 30.21 852 25.16 -1.5 29.3 87 -3.3 26.1
04:00 1023 30.21 852 25.16 -1.5 29.4 87 -3.3 26
04:05 1023 30.21 852 25.16 -1.5 29.3 87 -3.4 25.9
04:10 1023 30.21 852 25.16 -1.4 29.5 87 -3.4 26
04:15 1023 30.21 852 25.16 -1.4 29.4 87 -3.4 25.9
04:20 1023 30.21 852 25.16 -1.4 29.5 86 -3.4 25.9
04:25 1023 30.21 852 25.16 -1.3 29.7 86 -3.4 25.9
04:30 1023 30.21 852 25.16 -1.2 29.8 85 -3.4 25.9
04:35 1023 30.21 852 25.16 -1 30.1 85 -3.3 26
04:40 1023 30.21 852 25.16 -1 30.2 84 -3.4 25.9
04:45 1023 30.21 852 25.16 -1 30.2 84 -3.4 25.9
04:50 1022 30.18 852 25.16 -0.9 30.3 84 -3.4 26
04:55 1022 30.18 852 25.16 -1 30.3 83 -3.4 25.8
05:00 1022 30.18 852 25.16 -0.9 30.3 83 -3.5 25.7
05:05 1022 30.18 852 25.16 -0.9 30.4 83 -3.4 25.8
05:10 1023 30.21 852 25.16 -0.9 30.4 83 -3.5 25.8
05:15 1023 30.21 852 25.16 -0.8 30.5 83 -3.5 25.8
05:20 1023 30.21 852 25.16 -0.9 30.4 83 -3.5 25.7
05:25 1022 30.18 852 25.16 -1 30.2 83 -3.5 25.6
05:30 1023 30.21 852 25.16 -1.1 30 83 -3.6 25.5
05:35 1023 30.21 852 25.16 -1.1 30 84 -3.6 25.6
05:40 1023 30.21 852 25.16 -1.3 29.6 88 -3.1 26.4
05:45 1023 30.21 852 25.16 -1.6 29.2 91 -2.8 26.9
05:50 1023 30.21 852 25.16 -1.8 28.7 93 -2.8 26.9
05:55 1023 30.21 852 25.16 -1.8 28.7 90 -3.3 26
06:00 1023 30.21 852 25.16 -1.7 28.9 88 -3.4 25.9
06:05 1023 30.21 852 25.16 -1.7 29 87 -3.6 25.6
06:10 1023 30.21 852 25.16 -1.7 28.9 87 -3.7 25.4
06:15 1023 30.21 852 25.16 -1.5 29.3 85 -3.7 25.4
06:20 1023 30.21 852 25.16 -1.5 29.4 85 -3.7 25.4
06:25 1023 30.21 852 25.16 -1.4 29.5 85 -3.6 25.5
06:30 1023 30.21 852 25.16 -1.4 29.5 85 -3.6 25.6
06:35 1023 30.21 852 25.16 -1.5 29.3 86 -3.6 25.5
06:40 1023 30.21 852 25.16 -1.6 29.1 86 -3.6 25.5
06:45 1023 30.21 852 25.16 -1.8 28.8 87 -3.7 25.4
06:50 1023 30.21 852 25.16 -2 28.5 88 -3.7 25.3
06:55 1023 30.21 852 25.16 -2 28.4 87 -3.8 25.1
07:00 1023 30.21 852 25.16 -1.9 28.5 87 -3.8 25.2
07:05 1023 30.21 852 25.16 -1.9 28.6 87 -3.8 25.1
07:10 1023 30.21 852 25.16 -1.6 29 85 -3.8 25.1
07:15 1023 30.21 852 25.16 -1.5 29.4 84 -3.7 25.3
07:20 1023 30.21 852 25.16 -1.4 29.4 84 -3.7 25.3
07:25 1022 30.18 852 25.16 -1.4 29.4 85 -3.7 25.3
07:30 1022 30.18 852 25.16 -1.5 29.4 84 -3.8 25.2
07:35 1022 30.18 852 25.16 -1.6 29.1 85 -3.8 25.1
07:40 1022 30.18 852 25.16 -1.7 28.9 86 -3.9 25.1
07:45 1022 30.18 852 25.16 -1.7 28.9 85 -3.9 24.9
07:50 1022 30.18 852 25.16 -1.6 29.1 85 -3.8 25.2
07:55 1022 30.18 852 25.16 -1.6 29.2 84 -3.9 25
08:00 1022 30.18 851 25.13 -1.4 29.5 83 -3.9 25
08:05 1022 30.18 851 25.13 -1.1 29.9 82 -3.8 25.1
08:10 1022 30.18 851 25.13 -1 30.1 82 -3.8 25.2
08:15 1022 30.18 851 25.13 -1 30.2 81 -3.8 25.2
08:20 1022 30.18 851 25.13 -1 30.2 81 -3.9 25.1
08:25 1022 30.18 851 25.13 -0.6 30.9 79 -3.8 25.1
08:30 1022 30.18 852 25.16 -0.2 31.6 77 -3.8 25.2
08:35 1022 30.18 852 25.16 0.1 32.2 76 -3.7 25.3
08:40 1022 30.18 852 25.16 0.5 33 74 -3.6 25.5
08:45 1022 30.18 852 25.16 0.7 33.2 73 -3.6 25.5
08:50 1022 30.18 852 25.16 0.8 33.5 72 -3.6 25.4
08:55 1022 30.18 852 25.16 0.7 33.3 72 -3.7 25.3
09:00 1022 30.18 852 25.16 0.9 33.5 72 -3.7 25.4
09:05 1022 30.18 852 25.16 1.1 34 70 -3.8 25.2
09:10 1022 30.18 851 25.13 1.1 34 71 -3.7 25.4
09:15 1022 30.18 852 25.16 1.1 34.1 70 -3.7 25.3
09:20 1023 30.21 852 25.16 1.7 35 68 -3.6 25.6
09:25 1023 30.21 852 25.16 2.7 36.9 64 -3.3 26
09:30 1023 30.21 852 25.16 2.9 37.3 65 -3 26.7
09:35 1023 30.21 852 25.16 2.4 36.3 68 -3 26.7
09:40 1023 30.21 852 25.16 1.8 35.2 71 -3 26.6
09:45 1023 30.21 852 25.16 1.8 35.2 70 -3.1 26.4
09:50 1023 30.21 852 25.16 1.9 35.4 70 -2.9 26.7
09:55 1023 30.21 852 25.16 2.2 36 69 -3 26.7
10:00 1023 30.21 852 25.16 2.5 36.6 67 -3 26.6
10:05 1023 30.21 852 25.16 3.1 37.6 66 -2.7 27.2
10:10 1023 30.21 852 25.16 3.2 37.8 65 -2.7 27.2
10:15 1023 30.21 852 25.16 3.3 37.9 65 -2.7 27.1
10:20 1023 30.21 852 25.16 3.5 38.4 64 -2.7 27.2
10:25 1023 30.21 852 25.16 3.7 38.6 65 -2.2 28.1
10:30 1023 30.21 852 25.16 4 39.2 62 -2.6 27.4
10:35 1023 30.21 852 25.16 4 39.2 63 -2.5 27.6
10:40 1023 30.21 852 25.16 3.9 39.1 64 -2.2 28.1
10:45 1023 30.21 852 25.16 3.6 38.6 65 -2.3 27.9
10:50 1023 30.21 852 25.16 4.1 39.3 62 -2.6 27.3
10:55 1023 30.21 852 25.16 3.9 39.1 61 -2.8 27
11:00 1023 30.21 852 25.16 4.3 39.7 62 -2.2 28
11:05 1023 30.21 852 25.16 4.4 40 62 -2.2 28
11:10 1022 30.18 852 25.16 4.3 39.7 63 -2.2 28
11:15 1022 30.18 851 25.13 4.4 40 61 -2.4 27.7
11:20 1022 30.18 851 25.13 4.4 40 64 -1.8 28.7
11:25 1022 30.18 851 25.13 4.9 40.8 60 -2.1 28.2
11:30 1022 30.18 851 25.13 4.7 40.4 62 -1.9 28.6
11:35 1022 30.18 851 25.13 4.2 39.6 63 -2.3 27.9
11:40 1022 30.18 851 25.13 4.1 39.3 63 -2.3 27.9
11:45 1022 30.18 851 25.13 4.2 39.5 65 -1.7 28.9
11:50 1022 30.18 851 25.13 4.2 39.5 64 -2.1 28.3
11:55 1022 30.18 851 25.13 4.4 39.9 62 -2.2 28.1
12:00 1022 30.18 851 25.13 4.9 40.9 61 -1.9 28.6
12:05 1022 30.18 851 25.13 5.6 42 60 -1.7 29
12:10 1022 30.18 851 25.13 5.7 42.3 58 -1.9 28.6
12:15 1022 30.18 851 25.13 6.1 42.9 56 -2.1 28.2
12:20 1022 30.18 851 25.13 6.1 43.1 61 -0.9 30.4
12:25 1022 30.18 851 25.13 5.4 41.7 69 0.1 32.2
12:30 1022 30.18 851 25.13 4.5 40.1 73 0.1 32.2
12:35 1022 30.18 851 25.13 3.5 38.4 78 0.1 32.2
12:40 1022 30.18 851 25.13 3.8 38.9 75 -0.2 31.6
12:45 1022 30.18 851 25.13 4 39.2 75 -0.1 31.9
12:50 1022 30.18 851 25.13 3.8 38.8 76 0 32
12:55 1022 30.18 851 25.13 3.7 38.6 76 -0.1 31.8
13:00 1022 30.18 851 25.13 3.4 38.1 77 -0.3 31.5
13:05 1022 30.18 851 25.13 3.3 38 76 -0.6 31
13:10 1022 30.18 851 25.13 3.5 38.4 75 -0.5 31.1
13:15 1022 30.18 851 25.13 3.5 38.3 77 -0.2 31.7
13:20 1022 30.18 851 25.13 3.4 38.1 76 -0.5 31.1
13:25 1022 30.18 851 25.13 3.4 38.1 76 -0.4 31.3
13:30 1022 30.18 851 25.13 3.5 38.2 75 -0.6 31
13:35 1021 30.15 851 25.13 3.6 38.4 75 -0.5 31
13:40 1021 30.15 851 25.13 3.6 38.5 73 -0.7 30.7
13:45 1021 30.15 850 25.1 3.7 38.6 75 -0.3 31.4
13:50 1021 30.15 850 25.1 3.9 39 74 -0.3 31.5
13:55 1021 30.15 850 25.1 3.8 38.9 73 -0.6 31
14:00 1021 30.15 850 25.1 3.5 38.3 76 -0.4 31.3
14:05 1021 30.15 850 25.1 3.4 38.1 76 -0.3 31.4
14:10 1021 30.15 850 25.1 3.4 38.2 76 -0.5 31.1
14:15 1021 30.15 850 25.1 3.4 38.2 75 -0.7 30.8
14:20 1021 30.15 850 25.1 3.5 38.2 74 -0.7 30.7
14:25 1021 30.15 850 25.1 3.6 38.4 74 -0.7 30.7
14:30 1021 30.15 850 25.1 3.7 38.6 73 -0.7 30.7
14:35 1021 30.15 850 25.1 4 39.1 71 -0.7 30.7
14:40 1020 30.12 850 25.1 4.2 39.6 71 -0.6 30.9
14:45 1020 30.12 850 25.1 4.3 39.8 70 -0.6 30.9
14:50 1020 30.12 850 25.1 4.3 39.7 72 -0.4 31.2
14:55 1020 30.12 850 25.1 4.3 39.7 71 -0.5 31.2
15:00 1020 30.12 850 25.1 4.3 39.7 71 -0.5 31
15:05 1020 30.12 850 25.1 4.4 39.9 71 -0.4 31.2
15:10 1020 30.12 850 25.1 4.2 39.6 72 -0.5 31.2
15:15 1020 30.12 850 25.1 4.1 39.3 73 -0.3 31.5
15:20 1020 30.12 850 25.1 4.3 39.8 72 -0.2 31.6
15:25 1020 30.12 850 25.1 4.4 39.9 73 -0.1 31.8
15:30 1020 30.12 850 25.1 4.2 39.6 73 -0.2 31.6
15:35 1020 30.12 850 25.1 4.3 39.8 73 -0.1 31.8
15:40 1020 30.12 850 25.1 4.1 39.5 74 -0.1 31.8
15:45 1021 30.15 850 25.1 3.9 39.1 76 0 32
15:50 1021 30.15 850 25.1 3.5 38.2 78 -0.1 31.9
15:55 1021 30.15 850 25.1 3.5 38.3 77 -0.2 31.7
16:00 1021 30.15 850 25.1 3.5 38.4 77 -0.1 31.8
16:05 1021 30.15 850 25.1 3.4 38 78 -0.1 31.8
16:10 1021 30.15 850 25.1 3.4 38.2 78 -0.1 31.9
16:15 1021 30.15 850 25.1 3.4 38.1 77 -0.2 31.6
16:20 1021 30.15 850 25.1 3.4 38.2 78 -0.1 31.8
16:25 1021 30.15 850 25.1 3.6 38.5 77 -0.1 31.8
16:30 1021 30.15 850 25.1 3.6 38.6 77 -0.1 31.8
16:35 1021 30.15 850 25.1 3.6 38.5 77 0 32
16:40 1021 30.15 850 25.1 3.6 38.5 76 -0.2 31.7
16:45 1021 30.15 850 25.1 3.5 38.2 80 0.3 32.5
16:50 1021 30.15 850 25.1 3 37.4 82 0.2 32.3
16:55 1021 30.15 850 25.1 2.9 37.2 81 0 32
17:00 1021 30.15 850 25.1 2.9 37.2 82 0 32.1
17:05 1021 30.15 850 25.1 2.9 37.1 82 0.1 32.1
17:10 1020 30.12 850 25.1 2.8 37.1 83 0.2 32.4
17:15 1020 30.12 850 25.1 2.9 37.2 82 0.1 32.2
17:20 1020 30.12 850 25.1 3 37.4 81 0 32
17:25 1021 30.15 850 25.1 3.3 37.9 76 -0.6 31
17:30 1021 30.15 850 25.1 3.4 38.1 76 -0.4 31.3
17:35 1021 30.15 850 25.1 3.2 37.8 77 -0.5 31.2
17:40 1021 30.15 850 25.1 3.1 37.6 77 -0.5 31.1
17:45 1021 30.15 850 25.1 3.1 37.7 75 -0.8 30.6
17:50 1021 30.15 850 25.1 3.3 37.9 77 -0.4 31.3
17:55 1021 30.15 850 25.1 3.1 37.6 77 -0.4 31.2
18:00 1021 30.15 850 25.1 3.1 37.6 76 -0.7 30.7
18:05 1021 30.15 850 25.1 3.2 37.7 75 -0.8 30.5
18:10 1021 30.15 850 25.1 3.4 38 74 -0.9 30.4
18:15 1021 30.15 850 25.1 3.3 38 74 -0.8 30.5
18:20 1021 30.15 850 25.1 3.2 37.8 76 -0.7 30.8
18:25 1021 30.15 850 25.1 3 37.3 77 -0.7 30.7
18:30 1021 30.15 850 25.1 2.9 37.2 77 -0.7 30.7
18:35 1021 30.15 850 25.1 2.9 37.2 78 -0.5 31.1
18:40 1021 30.15 850 25.1 3.1 37.5 75 -1 30.2
18:45 1021 30.15 850 25.1 2.9 37.1 76 -0.9 30.4
18:50 1021 30.15 850 25.1 2.9 37.2 74 -1.2 29.8
18:55 1021 30.15 850 25.1 3 37.4 75 -1 30.2
19:00 1021 30.15 850 25.1 3.2 37.7 70 -1.7 28.9
19:05 1021 30.15 850 25.1 3.4 38.2 67 -2.2 28.1
19:10 1021 30.15 850 25.1 3.3 37.9 70 -1.7 29
19:15 1021 30.15 850 25.1 2.5 36.5 76 -1.4 29.5
19:20 1021 30.15 850 25.1 2.1 35.8 75 -1.9 28.5
19:25 1021 30.15 850 25.1 2.6 36.7 72 -2 28.4
19:30 1021 30.15 850 25.1 3.1 37.7 67 -2.5 27.5
19:35 1021 30.15 850 25.1 3.4 38.1 65 -2.5 27.4
19:40 1021 30.15 850 25.1 3.5 38.4 64 -2.7 27.2
19:45 1021 30.15 850 25.1 3.8 38.9 62 -2.8 27
19:50 1021 30.15 850 25.1 3.9 39 62 -2.8 26.9
19:55 1021 30.15 850 25.1 3.8 38.9 64 -2.4 27.7
20:00 1021 30.15 850 25.1 3.7 38.7 65 -2.2 28
20:05 1021 30.15 850 25.1 3.5 38.3 66 -2.1 28.2
20:10 1021 30.15 850 25.1 3.3 37.9 67 -2.2 28
20:15 1021 30.15 850 25.1 3.3 38 65 -2.6 27.2
20:20 1021 30.15 850 25.1 3.5 38.3 64 -2.7 27.2
20:25 1021 30.15 850 25.1 3.6 38.4 65 -2.3 27.9
20:30 1021 30.15 850 25.1 3.6 38.4 65 -2.4 27.7
20:35 1021 30.15 850 25.1 3.3 38 63 -3 26.7
20:40 1021 30.15 850 25.1 3.9 39 59 -3.4 25.9
20:45 1021 30.15 850 25.1 4.3 39.7 60 -2.7 27.1
20:50 1021 30.15 850 25.1 4.1 39.4 62 -2.5 27.5
20:55 1021 30.15 850 25.1 4 39.3 60 -2.9 26.7
21:00 1021 30.15 850 25.1 4.1 39.5 59 -3.1 26.3
21:05 1021 30.15 850 25.1 4.5 40 58 -3.2 26.3
21:10 1021 30.15 850 25.1 4.6 40.3 57 -3.2 26.3
21:15 1021 30.15 850 25.1 4.4 40 60 -2.8 27
21:20 1021 30.15 850 25.1 4 39.2 60 -3 26.5
21:25 1021 30.15 850 25.1 3.7 38.7 62 -2.9 26.9
21:30 1021 30.15 850 25.1 4 39.2 58 -3.5 25.8
21:35 1021 30.15 850 25.1 4.3 39.7 60 -2.7 27.1
21:40 1021 30.15 850 25.1 4.4 39.9 58 -3 26.5
21:45 1021 30.15 850 25.1 4.7 40.4 56 -3.3 26
21:50 1021 30.15 850 25.1 4.8 40.6 56 -3.3 26
21:55 1021 30.15 850 25.1 4.8 40.6 58 -2.7 27.1
22:00 1021 30.15 850 25.1 4.7 40.5 55 -3.6 25.6
22:05 1021 30.15 850 25.1 4.9 40.8 55 -3.4 25.9
22:10 1021 30.15 850 25.1 4.9 40.8 53 -3.8 25.1
22:15 1021 30.15 850 25.1 4.9 40.9 57 -3 26.7
22:20 1021 30.15 850 25.1 4.5 40.2 58 -3 26.7
22:25 1021 30.15 850 25.1 4.1 39.4 60 -3 26.6
22:30 1021 30.15 850 25.1 3.9 39.1 59 -3.2 26.2
22:35 1021 30.15 850 25.1 4 39.2 59 -3.2 26.3
22:40 1021 30.15 850 25.1 3.8 38.9 62 -2.9 26.8
22:45 1021 30.15 850 25.1 3.6 38.4 60 -3.4 25.9
22:50 1021 30.15 850 25.1 3.8 38.8 59 -3.4 25.8
22:55 1021 30.15 850 25.1 4 39.2 57 -3.7 25.3
23:00 1021 30.15 850 25.1 4.4 39.9 56 -3.6 25.6
23:05 1021 30.15 850 25.1 4.5 40.1 56 -3.5 25.7
23:10 1021 30.15 850 25.1 4.3 39.7 57 -3.4 25.8
23:15 1021 30.15 850 25.1 4 39.1 59 -3.3 26.1
23:20 1021 30.15 850 25.1 4 39.1 57 -3.7 25.3
23:25 1021 30.15 850 25.1 4.2 39.5 58 -3.3 26.1
23:30 1021 30.15 850 25.1 3.8 38.9 59 -3.4 25.8
23:35 1021 30.15 850 25.1 3.6 38.4 61 -3.2 26.3
23:40 1021 30.15 851 25.13 3 37.4 63 -3.4 25.9
23:45 1021 30.15 851 25.13 3.7 38.6 56 -4.4 24.2
23:50 1021 30.15 851 25.13 4.4 40 53 -4.2 24.4
23:55 1021 30.15 851 25.13 4.7 40.5 55 -3.5 25.7
24:00 1021 30.15 851 25.13 4.3 39.7 57 -3.5 25.7